Marmaduke, Arkansas
Current Conditions -  °F | °C
As of 2:35 PM on Monday 20 Oct 2014 (Local Time) from K4M9 Reporting Station
Clear Clear  
Wind Chill: 72°   Ceiling: Unl
Heat Index: 72°   Visibility: 10mi
Dew Point: 57°   Wind: 9mph
Humidity: 60%   Direction: 240°WSW
Pressure: 29.99"   Gusts: NA
Location:  36.19°N, 90.38°W
Report Text: K4M9 201935Z AUTO 24008KT 10SM CLR 22/14 A2999 RMK AO2
Loading
Personal Weather Stations






























Interactive Weather Map New forecast layout! Learn more

10-Day Weather Forecast

Advertisements
Track Severe Weather on mobile